Sheldon, South Carolina
Current Conditions -  °F | °C
As of 2:56 PM on Friday 21 Nov 2014 (Local Time) from KNBC Reporting Station
Clear Clear  
Wind Chill: 69°   Ceiling: Unl
Heat Index: 69°   Visibility: 10mi
Dew Point: 26°   Wind: 6mph
Humidity: 20%   Direction: 30°NNE
Pressure: 30.34"   Gusts: NA
Location:  32.6°N, 80.79°W
Report Text: KNBC 211956Z 03005KT 10SM CLR 21/M03 A3034 RMK AO2 SLP275 T02061033 $
Loading
Personal Weather Stations






























Interactive Weather Map New forecast layout! Learn more

10-Day Weather Forecast

Advertisements
Track Severe Weather on mobile